createdAt,value
2022-10-17T00:01:43.583Z,8.32
2022-10-17T00:04:28.802Z,8.10
2022-10-17T00:07:13.408Z,7.25
2022-10-17T00:09:58.432Z,8.00
2022-10-17T00:12:43.320Z,7.35
2022-10-17T00:15:28.540Z,8.13
2022-10-17T00:18:13.256Z,7.85
2022-10-17T00:20:58.198Z,8.15
2022-10-17T00:23:43.563Z,7.97
2022-10-17T00:26:29.136Z,8.90
2022-10-17T00:29:13.855Z,8.90
2022-10-17T00:31:58.861Z,8.13
2022-10-17T00:34:44.181Z,8.20
2022-10-17T00:37:31.109Z,8.60
2022-10-17T00:40:15.986Z,8.25
2022-10-17T00:43:00.848Z,8.85
2022-10-17T00:45:45.798Z,8.52
2022-10-17T00:48:30.799Z,8.93
2022-10-17T00:51:18.388Z,9.48
2022-10-17T00:54:04.464Z,8.50
2022-10-17T00:56:49.787Z,7.85
2022-10-17T00:59:37.546Z,8.35
2022-10-17T01:02:22.981Z,8.55
2022-10-17T01:05:09.659Z,8.27
2022-10-17T01:07:56.059Z,7.30
2022-10-17T01:11:00.994Z,8.35
2022-10-17T01:14:02.251Z,8.07
2022-10-17T01:17:11.187Z,8.20
2022-10-17T01:20:06.514Z,8.13
2022-10-17T01:23:26.998Z,7.75
2022-10-17T01:26:22.399Z,8.77
2022-10-17T01:29:35.870Z,7.80
2022-10-17T01:32:50.026Z,7.97
2022-10-17T01:35:46.515Z,7.72
2022-10-17T01:38:46.254Z,8.23
2022-10-17T01:41:45.897Z,7.85
2022-10-17T01:44:40.368Z,8.27
2022-10-17T01:47:31.536Z,8.27
2022-10-17T01:50:28.050Z,8.30
2022-10-17T01:53:26.395Z,8.10
2022-10-17T01:56:14.042Z,7.68
2022-10-17T01:59:18.888Z,8.45
2022-10-17T02:02:05.864Z,7.85
2022-10-17T02:04:55.286Z,8.13
2022-10-17T02:07:41.424Z,7.78
2022-10-17T02:10:50.306Z,7.70
2022-10-17T02:13:57.003Z,8.18
2022-10-17T02:17:09.500Z,6.82
2022-10-17T02:20:15.946Z,7.28
2022-10-17T02:23:12.189Z,7.13
2022-10-17T02:26:30.499Z,7.53
2022-10-17T02:29:25.743Z,7.93
2022-10-17T02:32:17.344Z,7.95
2022-10-17T02:35:06.996Z,7.13
2022-10-17T02:37:52.904Z,8.60
2022-10-17T02:40:40.710Z,7.70
2022-10-17T02:43:25.748Z,8.02
2022-10-17T02:46:20.188Z,8.15
2022-10-17T02:49:20.506Z,7.68
2022-10-17T02:52:30.302Z,7.85
2022-10-17T02:55:20.595Z,7.55
2022-10-17T02:58:14.357Z,8.18
2022-10-17T03:00:59.946Z,7.85
2022-10-17T03:03:45.562Z,7.35
2022-10-17T03:06:30.759Z,7.68
2022-10-17T03:09:16.055Z,7.40
2022-10-17T03:12:01.465Z,8.30
2022-10-17T03:14:47.290Z,7.60
2022-10-17T03:17:32.342Z,7.78
2022-10-17T03:20:17.692Z,8.52
2022-10-17T03:23:03.430Z,8.27
2022-10-17T03:25:48.477Z,7.78
2022-10-17T03:28:34.639Z,7.90
2022-10-17T03:31:19.351Z,7.80
2022-10-17T03:34:05.426Z,7.70
2022-10-17T03:36:50.411Z,7.88
2022-10-17T03:39:36.405Z,8.20
2022-10-17T03:42:21.393Z,7.50
2022-10-17T03:45:07.093Z,8.48
2022-10-17T03:47:52.523Z,8.02
2022-10-17T03:50:37.374Z,8.20
2022-10-17T03:53:22.353Z,8.23
2022-10-17T03:56:19.249Z,8.63
2022-10-17T03:59:15.392Z,8.27
2022-10-17T04:02:04.036Z,7.97
2022-10-17T04:04:49.315Z,8.30
2022-10-17T04:07:34.076Z,7.63
2022-10-17T04:10:19.203Z,8.23
2022-10-17T04:13:05.941Z,8.60
2022-10-17T04:16:06.473Z,8.15
2022-10-17T04:18:56.348Z,7.55
2022-10-17T04:21:43.277Z,7.82
2022-10-17T04:24:28.401Z,8.82
2022-10-17T04:27:25.587Z,9.80
2022-10-17T04:30:11.478Z,12.05
2022-10-17T04:32:56.631Z,12.38
2022-10-17T04:35:41.444Z,10.35
2022-10-17T04:38:28.754Z,9.32
2022-10-17T04:41:16.657Z,9.32
2022-10-17T04:44:01.997Z,10.07
2022-10-17T04:46:49.906Z,9.50
2022-10-17T04:49:35.009Z,8.80
2022-10-17T04:52:28.329Z,8.20
2022-10-17T04:55:13.437Z,7.90
2022-10-17T04:57:58.442Z,8.90
2022-10-17T05:00:43.464Z,8.15
2022-10-17T05:03:38.060Z,7.97
2022-10-17T05:06:24.857Z,7.55
2022-10-17T05:09:32.629Z,7.53
2022-10-17T05:12:17.672Z,7.47
2022-10-17T05:15:04.170Z,9.30
2022-10-17T05:17:54.472Z,11.18
2022-10-17T05:20:40.034Z,11.98
2022-10-17T05:23:24.932Z,10.13
2022-10-17T05:26:13.801Z,8.65
2022-10-17T05:29:02.639Z,7.47
2022-10-17T05:31:49.882Z,6.80
2022-10-17T05:34:37.500Z,7.03
2022-10-17T05:37:22.776Z,7.32
2022-10-17T05:40:10.577Z,7.45
2022-10-17T05:42:55.688Z,7.40
2022-10-17T05:45:42.258Z,7.45
2022-10-17T05:48:32.248Z,7.93
2022-10-17T05:51:18.447Z,7.60
2022-10-17T05:54:05.837Z,7.30
2022-10-17T05:56:55.463Z,8.27
2022-10-17T05:59:44.016Z,7.97
2022-10-17T06:02:32.018Z,8.25
2022-10-17T06:05:17.723Z,8.63
2022-10-17T06:08:02.822Z,8.23
2022-10-17T06:10:52.197Z,7.65
2022-10-17T06:13:38.586Z,8.02
2022-10-17T06:16:29.139Z,6.88
2022-10-17T06:19:14.230Z,6.63
2022-10-17T06:21:59.410Z,6.07
2022-10-17T06:24:45.964Z,5.95
2022-10-17T06:27:33.327Z,6.05
2022-10-17T06:30:18.388Z,5.72
2022-10-17T06:33:03.584Z,5.93
2022-10-17T06:35:54.521Z,6.47
2022-10-17T06:38:41.528Z,5.82
2022-10-17T06:41:34.458Z,5.30
2022-10-17T06:44:28.058Z,5.20
2022-10-17T06:47:29.092Z,5.03
2022-10-17T06:50:19.088Z,4.63
2022-10-17T06:53:15.547Z,5.47
2022-10-17T06:56:07.813Z,4.82
2022-10-17T06:59:06.197Z,4.78
2022-10-17T07:01:55.178Z,5.10
2022-10-17T07:04:42.311Z,4.18
2022-10-17T07:07:32.150Z,4.93
2022-10-17T07:10:17.346Z,4.32
2022-10-17T07:13:03.397Z,4.40
2022-10-17T07:15:51.748Z,4.70
2022-10-17T07:18:41.869Z,4.40
2022-10-17T07:21:39.187Z,4.30
2022-10-17T07:24:27.085Z,4.22
2022-10-17T07:27:22.546Z,3.70
2022-10-17T07:30:08.656Z,4.18
2022-10-17T07:33:05.892Z,3.97
2022-10-17T07:35:52.676Z,3.78
2022-10-17T07:38:41.663Z,4.15
2022-10-17T07:41:53.836Z,4.75
2022-10-17T07:45:20.943Z,4.35
2022-10-17T07:52:02.470Z,4.05
2022-10-17T07:55:09.114Z,3.95
2022-10-17T07:58:05.849Z,4.07
2022-10-17T08:04:04.937Z,3.78
2022-10-17T08:06:53.412Z,3.50
2022-10-17T08:09:43.765Z,3.80
2022-10-17T08:15:33.665Z,4.13
2022-10-17T08:18:18.993Z,4.00
2022-10-17T08:21:09.214Z,3.95
2022-10-17T08:23:54.264Z,4.20
2022-10-17T08:27:00.227Z,3.80
2022-10-17T08:29:53.726Z,3.97
2022-10-17T08:32:44.475Z,3.85
2022-10-17T08:35:29.620Z,4.40
2022-10-17T08:38:18.877Z,4.30
2022-10-17T08:41:35.170Z,4.03
2022-10-17T08:44:27.186Z,4.25
2022-10-17T08:47:41.925Z,4.32
2022-10-17T08:54:02.203Z,3.97
2022-10-17T08:56:54.131Z,4.28
2022-10-17T08:59:39.477Z,4.40
2022-10-17T09:02:30.996Z,4.38
2022-10-17T09:05:29.913Z,4.80
2022-10-17T09:08:24.873Z,4.82
2022-10-17T09:11:36.994Z,4.70
2022-10-17T09:14:38.155Z,5.10
2022-10-17T09:17:52.362Z,4.38
2022-10-17T09:20:53.922Z,4.70
2022-10-17T09:23:53.222Z,4.68
2022-10-17T09:26:47.012Z,4.57
2022-10-17T09:29:43.584Z,4.32
2022-10-17T09:32:29.458Z,4.30
2022-10-17T09:35:15.202Z,4.13
2022-10-17T09:38:01.674Z,4.55
2022-10-17T09:40:57.969Z,4.78
2022-10-17T09:43:43.203Z,5.10
2022-10-17T09:46:36.239Z,4.28
2022-10-17T09:49:39.511Z,4.50
2022-10-17T09:52:35.692Z,4.40
2022-10-17T09:55:39.784Z,4.80
2022-10-17T09:58:45.723Z,4.35
2022-10-17T10:01:31.241Z,5.22
2022-10-17T10:04:27.634Z,5.38
2022-10-17T10:07:17.590Z,5.00
2022-10-17T10:10:05.863Z,4.60
2022-10-17T10:13:22.120Z,4.47
2022-10-17T10:16:21.587Z,5.00
2022-10-17T10:19:29.391Z,4.70
2022-10-17T10:22:16.917Z,4.90
2022-10-17T10:25:15.833Z,4.75
2022-10-17T10:28:01.619Z,4.70
2022-10-17T10:30:53.319Z,4.43
2022-10-17T10:33:45.921Z,4.43
2022-10-17T10:36:48.382Z,4.90
2022-10-17T10:39:39.039Z,4.32
2022-10-17T10:42:37.346Z,4.60
2022-10-17T10:45:49.441Z,4.43
2022-10-17T10:48:36.448Z,4.90
2022-10-17T10:51:40.040Z,4.93
2022-10-17T10:54:35.358Z,5.28
2022-10-17T10:57:23.224Z,5.28
2022-10-17T11:00:12.026Z,5.10
2022-10-17T11:03:51.428Z,5.03
2022-10-17T11:06:44.591Z,5.72
2022-10-17T11:10:51.165Z,5.45
2022-10-17T11:14:09.657Z,5.20
2022-10-17T11:17:19.596Z,5.28
2022-10-17T11:20:07.335Z,5.53
2022-10-17T11:22:58.409Z,4.88
2022-10-17T11:25:43.656Z,5.30
2022-10-17T11:28:31.358Z,5.60
2022-10-17T11:31:45.970Z,5.07
2022-10-17T11:34:39.203Z,5.38
2022-10-17T11:37:29.772Z,5.43
2022-10-17T11:40:25.150Z,5.68
2022-10-17T11:43:23.005Z,5.30
2022-10-17T11:46:19.655Z,5.00
2022-10-17T11:49:19.804Z,5.20
2022-10-17T11:52:44.080Z,4.85
2022-10-17T11:55:30.583Z,5.18
2022-10-17T11:58:36.400Z,4.80
2022-10-17T12:01:29.985Z,4.80
2022-10-17T12:04:41.337Z,4.88
2022-10-17T12:07:53.034Z,5.35
2022-10-17T12:11:03.567Z,4.72
2022-10-17T12:13:51.345Z,4.97
2022-10-17T12:16:38.399Z,4.82
2022-10-17T12:19:25.952Z,4.88
2022-10-17T12:22:28.212Z,5.00
2022-10-17T12:25:23.072Z,5.13
2022-10-17T12:28:29.675Z,5.53
2022-10-17T12:31:18.512Z,6.05
2022-10-17T12:34:05.435Z,5.15
2022-10-17T12:36:50.257Z,4.88
2022-10-17T12:39:35.103Z,4.88
2022-10-17T12:42:31.916Z,5.22
2022-10-17T12:45:57.124Z,4.82
2022-10-17T12:48:41.908Z,5.70
2022-10-17T12:51:37.632Z,5.22
2022-10-17T12:54:23.801Z,5.28
2022-10-17T12:57:35.253Z,4.97
2022-10-17T13:00:23.189Z,5.07
2022-10-17T13:03:13.665Z,5.60
2022-10-17T13:06:06.101Z,5.45
2022-10-17T13:09:03.841Z,5.25
2022-10-17T13:11:50.469Z,4.80
2022-10-17T13:14:40.533Z,5.80
2022-10-17T13:17:28.862Z,4.93
2022-10-17T13:20:25.461Z,4.70
2022-10-17T13:23:30.224Z,5.03
2022-10-17T13:26:19.653Z,5.13
2022-10-17T13:29:06.178Z,5.07
2022-10-17T13:32:00.493Z,5.38
2022-10-17T13:34:45.276Z,5.53
2022-10-17T13:37:30.298Z,5.75
2022-10-17T13:40:50.964Z,5.22
2022-10-17T13:43:26.696Z,5.68
2022-10-17T13:46:37.847Z,5.38
2022-10-17T13:49:36.836Z,5.82
2022-10-17T13:52:24.638Z,5.18
2022-10-17T13:55:17.529Z,5.35
2022-10-17T13:58:16.698Z,5.20
2022-10-17T14:01:02.083Z,5.95
2022-10-17T14:03:49.788Z,7.30
2022-10-17T14:06:49.501Z,6.90
2022-10-17T14:09:36.013Z,7.22
2022-10-17T14:12:21.944Z,7.53
2022-10-17T14:15:14.563Z,7.68
2022-10-17T14:18:07.352Z,7.40
2022-10-17T14:24:13.767Z,6.68
2022-10-17T14:27:00.025Z,8.02
2022-10-17T14:29:53.113Z,9.10
2022-10-17T14:32:37.823Z,9.30
2022-10-17T14:35:41.212Z,11.38
2022-10-17T14:38:29.119Z,14.82
2022-10-17T14:41:44.737Z,20.02
2022-10-17T14:44:35.366Z,16.63
2022-10-17T14:47:43.280Z,14.02
2022-10-17T14:50:31.481Z,12.57
2022-10-17T14:53:16.610Z,11.60
2022-10-17T14:56:05.505Z,11.20
2022-10-17T14:58:51.510Z,9.98
2022-10-17T15:01:36.159Z,10.95
2022-10-17T15:04:21.098Z,8.95
2022-10-17T15:07:05.986Z,10.05
2022-10-17T15:09:53.112Z,9.20
2022-10-17T15:12:37.952Z,10.45
2022-10-17T15:15:22.962Z,10.38
2022-10-17T15:18:11.243Z,12.95
2022-10-17T15:21:05.056Z,14.25
2022-10-17T15:23:51.815Z,17.88
2022-10-17T15:26:37.033Z,18.17
2022-10-17T15:29:21.612Z,18.23
2022-10-17T15:32:06.474Z,17.30
2022-10-17T15:34:51.634Z,19.77
2022-10-17T15:37:36.604Z,19.40
2022-10-17T15:40:24.572Z,18.63
2022-10-17T15:43:09.606Z,19.10
2022-10-17T15:45:54.352Z,19.25
2022-10-17T15:48:40.449Z,18.15
2022-10-17T15:51:25.370Z,23.30
2022-10-17T15:54:10.339Z,24.88
2022-10-17T15:56:55.625Z,23.88
2022-10-17T15:59:40.696Z,29.02
2022-10-17T16:02:26.202Z,30.63
2022-10-17T16:05:18.643Z,31.33
2022-10-17T16:08:03.720Z,36.90
2022-10-17T16:10:49.176Z,38.10
2022-10-17T16:13:33.807Z,43.65
2022-10-17T16:16:20.142Z,42.67
2022-10-17T16:19:05.178Z,40.70
2022-10-17T16:21:50.181Z,40.95
2022-10-17T16:24:35.064Z,42.85
2022-10-17T16:27:19.940Z,41.65
2022-10-17T16:30:06.872Z,40.10
2022-10-17T16:32:52.799Z,41.22
2022-10-17T16:35:38.080Z,42.15
2022-10-17T16:38:22.778Z,45.15
2022-10-17T16:41:21.113Z,53.63
2022-10-17T16:44:15.866Z,50.20
2022-10-17T16:47:00.850Z,48.67
2022-10-17T16:49:45.993Z,43.55
2022-10-17T16:52:30.991Z,40.90
2022-10-17T16:55:18.398Z,38.60
2022-10-17T16:58:03.051Z,35.75
2022-10-17T17:00:48.253Z,32.88
2022-10-17T17:03:41.896Z,31.13
2022-10-17T17:06:28.561Z,30.08
2022-10-17T17:09:13.726Z,28.13
2022-10-17T17:11:58.970Z,25.77
2022-10-17T17:14:43.889Z,27.30
2022-10-17T17:17:44.341Z,25.63
2022-10-17T17:20:33.850Z,24.40
2022-10-17T17:23:18.608Z,24.00
2022-10-17T17:26:11.509Z,24.75
2022-10-17T17:28:58.679Z,24.58
2022-10-17T17:31:43.836Z,25.25
2022-10-17T17:34:28.814Z,25.42
2022-10-17T17:37:13.879Z,24.75
2022-10-17T17:39:58.901Z,25.33
2022-10-17T17:42:43.899Z,25.13
2022-10-17T17:45:28.807Z,23.17
2022-10-17T17:48:14.066Z,25.50
2022-10-17T17:51:04.098Z,25.02
2022-10-17T17:53:49.467Z,24.08
2022-10-17T17:56:35.049Z,25.10
2022-10-17T17:59:19.740Z,23.80
2022-10-17T18:02:06.225Z,24.38
2022-10-17T18:04:51.343Z,25.92
2022-10-17T18:07:37.182Z,26.38
2022-10-17T18:10:21.909Z,34.05
2022-10-17T18:13:06.762Z,37.75
2022-10-17T18:15:57.461Z,35.45
2022-10-17T18:18:44.430Z,36.40
2022-10-17T18:21:29.094Z,35.65
2022-10-17T18:24:14.051Z,32.40
2022-10-17T18:26:59.375Z,28.20
2022-10-17T18:29:47.631Z,27.10
2022-10-17T18:32:32.716Z,25.45
2022-10-17T18:35:17.723Z,25.42
2022-10-17T18:38:02.756Z,25.42
2022-10-17T18:40:50.021Z,25.35
2022-10-17T18:43:37.755Z,26.48
2022-10-17T18:46:26.137Z,23.17
2022-10-17T18:49:15.700Z,22.10
2022-10-17T18:52:00.723Z,21.92
2022-10-17T18:54:45.579Z,20.88
2022-10-17T18:57:30.753Z,20.90
2022-10-17T19:00:16.782Z,19.52
2022-10-17T19:03:03.619Z,22.08
2022-10-17T19:05:48.458Z,25.42
2022-10-17T19:08:35.715Z,22.42
2022-10-17T19:11:25.723Z,22.67
2022-10-17T19:14:14.528Z,20.08
2022-10-17T19:16:59.468Z,20.17
2022-10-17T19:19:44.735Z,17.83
2022-10-17T19:22:30.694Z,19.77
2022-10-17T19:25:15.393Z,20.67
2022-10-17T19:28:00.373Z,21.30
2022-10-17T19:30:45.296Z,22.10
2022-10-17T19:33:31.767Z,32.05
2022-10-17T19:36:17.061Z,33.70
2022-10-17T19:39:04.949Z,25.48
2022-10-17T19:41:49.705Z,24.08
2022-10-17T19:44:34.988Z,23.00
2022-10-17T19:47:19.825Z,23.02
2022-10-17T19:50:05.847Z,22.73
2022-10-17T19:52:51.535Z,21.10
2022-10-17T19:55:36.215Z,21.92
2022-10-17T19:58:21.334Z,19.60
2022-10-17T20:01:06.337Z,17.60
2022-10-17T20:03:51.889Z,18.20
2022-10-17T20:06:37.411Z,19.17
2022-10-17T20:09:24.507Z,17.80
2022-10-17T20:12:09.334Z,18.40
2022-10-17T20:14:54.266Z,16.52
2022-10-17T20:17:39.382Z,17.00
2022-10-17T20:20:24.932Z,15.30
2022-10-17T20:23:09.883Z,16.02
2022-10-17T20:26:08.671Z,15.57
2022-10-17T20:29:10.091Z,15.25
2022-10-17T20:31:56.125Z,13.95
2022-10-17T20:34:40.976Z,14.55
2022-10-17T20:37:26.513Z,15.35
2022-10-17T20:43:16.900Z,14.05
2022-10-17T20:46:15.584Z,14.38
2022-10-17T20:49:08.123Z,13.20
2022-10-17T20:51:52.901Z,13.15
2022-10-17T20:54:37.951Z,14.15
2022-10-17T20:57:22.779Z,13.35
2022-10-17T21:00:08.549Z,12.88
2022-10-17T21:02:53.324Z,12.77
2022-10-17T21:05:39.311Z,12.52
2022-10-17T21:08:24.309Z,12.73
2022-10-17T21:11:12.224Z,13.20
2022-10-17T21:14:02.152Z,13.30
2022-10-17T21:16:47.941Z,12.90
2022-10-17T21:19:33.166Z,12.70
2022-10-17T21:22:19.366Z,12.15
2022-10-17T21:25:05.224Z,11.80
2022-10-17T21:27:51.940Z,13.23
2022-10-17T21:30:36.705Z,11.77
2022-10-17T21:33:21.463Z,12.82
2022-10-17T21:36:07.511Z,12.82
2022-10-17T21:38:53.722Z,11.43
2022-10-17T21:41:38.983Z,12.73
2022-10-17T21:44:25.217Z,13.00
2022-10-17T21:47:10.025Z,12.27
2022-10-17T21:49:55.521Z,12.60
2022-10-17T21:52:40.485Z,12.50
2022-10-17T21:55:25.434Z,13.07
2022-10-17T21:58:10.542Z,12.05
2022-10-17T22:01:13.639Z,11.77
2022-10-17T22:04:01.247Z,12.43
2022-10-17T22:06:50.444Z,12.65
2022-10-17T22:09:35.301Z,12.27
2022-10-17T22:12:20.195Z,13.23
2022-10-17T22:15:05.971Z,12.00
2022-10-17T22:17:50.740Z,10.70
2022-10-17T22:20:35.763Z,11.00
2022-10-17T22:23:20.700Z,11.90
2022-10-17T22:26:06.287Z,12.27
2022-10-17T22:28:51.342Z,10.70
2022-10-17T22:31:37.261Z,11.43
2022-10-17T22:34:22.107Z,10.80
2022-10-17T22:37:07.223Z,11.10
2022-10-17T22:39:52.313Z,11.23
2022-10-17T22:42:37.230Z,11.45
2022-10-17T22:45:22.220Z,11.13
2022-10-17T22:48:08.146Z,11.27
2022-10-17T22:50:54.183Z,11.27
2022-10-17T22:53:39.289Z,11.57
2022-10-17T22:56:23.931Z,10.23
2022-10-17T22:59:08.854Z,10.77
2022-10-17T23:01:53.727Z,11.27
2022-10-17T23:04:38.646Z,11.13
2022-10-17T23:07:23.737Z,12.25
2022-10-17T23:10:08.984Z,12.85
2022-10-17T23:12:54.119Z,12.00
2022-10-17T23:15:39.450Z,11.52
2022-10-17T23:18:26.545Z,11.68
2022-10-17T23:21:12.014Z,11.05
2022-10-17T23:23:56.895Z,11.95
2022-10-17T23:26:41.934Z,12.45
2022-10-17T23:29:32.013Z,13.27
2022-10-17T23:32:19.517Z,12.77
2022-10-17T23:35:05.446Z,12.32
2022-10-17T23:37:50.286Z,12.25
2022-10-17T23:40:35.426Z,12.80
2022-10-17T23:43:20.332Z,12.38
2022-10-17T23:46:06.228Z,12.63
2022-10-17T23:48:50.967Z,12.32
2022-10-17T23:51:35.884Z,11.38
2022-10-17T23:54:20.888Z,12.20
2022-10-17T23:57:05.768Z,11.43
2022-10-17T23:59:50.763Z,11.00
